UKV30SV EGKK-EGJJ
Flight info
| Callsign | UKV30SV |
|---|---|
| Flight time | N/A |
| Altitude | 22000 |
| Route | NOVMA L620 SAM N63 LELNA |
| Aircraft | A20N/M-SDE3FGHIRWY/S |
Departure
| Time | N/A |
|---|---|
| Airport | London Gatwick Airport (EGKK) |
Arrival
| Time | 2026-05-04 06:25 |
|---|---|
| Airport | Jersey Airport (EGJJ) |
| Time | Latitude | Longitude | Altitude | Speed | Heading |
|---|---|---|---|---|---|
| 2026-05-04 05:59 | 50.96584 | -1.26945 | 12709 ft | 373 kts | 256° |
| 2026-05-04 05:59 | 50.95705 | -1.30931 | 13288 ft | 385 kts | 242° |
| 2026-05-04 05:59 | 50.94171 | -1.34465 | 13885 ft | 395 kts | 227° |
| 2026-05-04 05:59 | 50.92055 | -1.37260 | 14406 ft | 398 kts | 211° |
| 2026-05-04 06:00 | 50.89592 | -1.39302 | 14992 ft | 401 kts | 206° |
| 2026-05-04 06:00 | 50.87088 | -1.41280 | 15535 ft | 403 kts | 206° |
| 2026-05-04 06:00 | 50.84569 | -1.43271 | 16085 ft | 406 kts | 206° |
| 2026-05-04 06:00 | 50.82042 | -1.45273 | 16660 ft | 408 kts | 206° |
| 2026-05-04 06:01 | 50.79491 | -1.47298 | 17234 ft | 411 kts | 206° |
| 2026-05-04 06:01 | 50.76930 | -1.49330 | 17827 ft | 414 kts | 206° |
| 2026-05-04 06:03 | 50.58765 | -1.63690 | 19996 ft | 415 kts | 206° |
| 2026-05-04 06:03 | 50.56185 | -1.65719 | 19998 ft | 414 kts | 206° |
| 2026-05-04 06:05 | 50.38115 | -1.79863 | 20004 ft | 415 kts | 206° |
| 2026-05-04 06:05 | 50.32950 | -1.83884 | 20004 ft | 415 kts | 206° |
| 2026-05-04 06:05 | 50.30419 | -1.85850 | 20004 ft | 414 kts | 206° |
| 2026-05-04 06:06 | 50.27837 | -1.87854 | 20005 ft | 414 kts | 206° |
| 2026-05-04 06:06 | 50.25253 | -1.89856 | 20003 ft | 415 kts | 206° |
| 2026-05-04 06:06 | 50.22669 | -1.91857 | 20008 ft | 415 kts | 206° |
| 2026-05-04 06:06 | 50.20084 | -1.93856 | 20006 ft | 415 kts | 206° |
| 2026-05-04 06:07 | 50.17499 | -1.95853 | 20004 ft | 415 kts | 206° |
| 2026-05-04 06:07 | 50.14913 | -1.97847 | 19822 ft | 414 kts | 206° |
| 2026-05-04 06:07 | 50.12333 | -1.99835 | 19460 ft | 413 kts | 206° |
| 2026-05-04 06:07 | 50.09761 | -2.01814 | 19094 ft | 412 kts | 206° |
| 2026-05-04 06:08 | 50.07196 | -2.03786 | 18735 ft | 411 kts | 206° |
| 2026-05-04 06:08 | 50.04647 | -2.05742 | 18379 ft | 410 kts | 206° |
| 2026-05-04 06:08 | 50.02079 | -2.07711 | 17988 ft | 409 kts | 205° |
| 2026-05-04 06:08 | 49.99519 | -2.09591 | 17579 ft | 405 kts | 202° |
| 2026-05-04 06:09 | 49.96873 | -2.11062 | 17187 ft | 403 kts | 196° |
| 2026-05-04 06:09 | 49.94177 | -2.12079 | 16793 ft | 394 kts | 192° |
| 2026-05-04 06:11 | 49.77352 | -2.17782 | 13699 ft | 327 kts | 192° |
| 2026-05-04 06:11 | 49.75153 | -2.18529 | 13268 ft | 320 kts | 192° |
| 2026-05-04 06:13 | 49.61517 | -2.24157 | 10409 ft | 280 kts | 195° |
| 2026-05-04 06:14 | 49.50559 | -2.29027 | 8313 ft | 262 kts | 195° |
| 2026-05-04 06:14 | 49.48823 | -2.29797 | 7986 ft | 257 kts | 195° |
| 2026-05-04 06:15 | 49.47118 | -2.30552 | 7675 ft | 253 kts | 195° |
| 2026-05-04 06:15 | 49.45441 | -2.31294 | 7384 ft | 249 kts | 196° |
| 2026-05-04 06:15 | 49.43790 | -2.32024 | 7083 ft | 245 kts | 196° |
| 2026-05-04 06:15 | 49.42163 | -2.32744 | 6785 ft | 242 kts | 196° |
| 2026-05-04 06:16 | 49.40559 | -2.33453 | 6496 ft | 239 kts | 196° |
| 2026-05-04 06:16 | 49.38970 | -2.34154 | 6191 ft | 236 kts | 196° |
| 2026-05-04 06:16 | 49.37418 | -2.34839 | 5876 ft | 234 kts | 196° |
| 2026-05-04 06:16 | 49.35857 | -2.35527 | 5555 ft | 233 kts | 196° |
| 2026-05-04 06:17 | 49.34304 | -2.36211 | 5214 ft | 230 kts | 196° |
| 2026-05-04 06:17 | 49.32779 | -2.36882 | 4805 ft | 227 kts | 196° |
| 2026-05-04 06:17 | 49.31258 | -2.37551 | 4351 ft | 228 kts | 196° |
| 2026-05-04 06:17 | 49.29730 | -2.38223 | 3880 ft | 227 kts | 196° |
| 2026-05-04 06:18 | 49.28226 | -2.38885 | 3419 ft | 221 kts | 196° |
| 2026-05-04 06:18 | 49.27087 | -2.39385 | 3064 ft | 211 kts | 196° |
| 2026-05-04 06:18 | 49.25745 | -2.39974 | 2736 ft | 189 kts | 196° |
| 2026-05-04 06:20 | 49.18208 | -2.43617 | 2006 ft | 176 kts | 122° |
| 2026-05-04 06:20 | 49.17974 | -2.41803 | 2006 ft | 178 kts | 80° |
| 2026-05-04 06:21 | 49.19429 | -2.34752 | 2001 ft | 149 kts | 76° |
| 2026-05-04 06:21 | 49.19637 | -2.33211 | 1953 ft | 149 kts | 81° |
| 2026-05-04 06:22 | 49.19741 | -2.32181 | 1828 ft | 147 kts | 82° |
| 2026-05-04 06:22 | 49.19869 | -2.30631 | 1632 ft | 148 kts | 82° |
| 2026-05-04 06:25 | 49.20679 | -2.19185 | 280 ft | 29 kts | 273° |
| 2026-05-04 06:25 | 49.20700 | -2.19502 | 280 ft | 28 kts | 261° |
| 2026-05-04 06:26 | 49.20609 | -2.19700 | 280 ft | 17 kts | 201° |
| 2026-05-04 06:26 | 49.20565 | -2.19701 | 280 ft | 2 kts | 174° |
| 2026-05-04 06:26 | 49.20558 | -2.19700 | 280 ft | 0 kts | 174° |